createdAt,value
2018-12-29T00:01:47.216Z,60.04
2018-12-29T00:04:37.329Z,60.19
2018-12-29T00:07:27.849Z,60.21
2018-12-29T00:10:18.152Z,60.35
2018-12-29T00:13:08.361Z,60.38
2018-12-29T00:16:02.882Z,60.21
2018-12-29T00:18:53.252Z,60.36
2018-12-29T00:21:43.559Z,60.37
2018-12-29T00:24:33.867Z,60.52
2018-12-29T00:27:24.244Z,60.26
2018-12-29T00:30:14.032Z,60.41
2018-12-29T00:33:03.895Z,60.42
2018-12-29T00:35:54.410Z,60.24
2018-12-29T00:38:44.416Z,60.28
2018-12-29T00:41:34.607Z,60.18
2018-12-29T00:44:25.139Z,60.32
2018-12-29T00:47:15.041Z,60.35
2018-12-29T00:50:05.267Z,60.51
2018-12-29T00:52:55.251Z,60.64
2018-12-29T00:55:45.141Z,60.46
2018-12-29T00:58:35.333Z,61.05
2018-12-29T01:01:25.426Z,61.12
2018-12-29T01:04:15.319Z,61.41
2018-12-29T01:07:05.178Z,61.65
2018-12-29T01:09:55.623Z,62.07
2018-12-29T01:12:45.788Z,62.18
2018-12-29T01:15:36.262Z,62.12
2018-12-29T01:18:26.619Z,62.16
2018-12-29T01:21:16.384Z,62.05
2018-12-29T01:24:06.248Z,61.82
2018-12-29T01:26:56.029Z,62.21
2018-12-29T01:29:46.291Z,61.91
2018-12-29T01:32:36.019Z,62.01
2018-12-29T01:35:26.251Z,61.99
2018-12-29T01:38:16.478Z,61.93
2018-12-29T01:41:06.558Z,61.91
2018-12-29T01:43:56.833Z,62.57
2018-12-29T01:46:46.658Z,63.46
2018-12-29T01:49:36.375Z,63.89
2018-12-29T01:52:26.320Z,64.37
2018-12-29T01:55:16.003Z,65.50
2018-12-29T01:58:06.314Z,66.55
2018-12-29T02:00:56.792Z,66.51
2018-12-29T02:03:46.756Z,66.58
2018-12-29T02:06:36.583Z,66.80
2018-12-29T02:09:26.329Z,67.31
2018-12-29T02:12:16.115Z,67.42
2018-12-29T02:15:05.950Z,67.90
2018-12-29T02:17:56.142Z,68.31
2018-12-29T02:20:46.568Z,68.63
2018-12-29T02:23:36.870Z,69.07
2018-12-29T02:26:27.452Z,69.52
2018-12-29T02:29:17.348Z,69.85
2018-12-29T02:32:07.342Z,70.12
2018-12-29T02:34:57.181Z,70.75
2018-12-29T02:37:47.553Z,70.80
2018-12-29T02:40:37.517Z,70.92
2018-12-29T02:43:27.659Z,70.58
2018-12-29T02:46:17.803Z,70.50
2018-12-29T02:49:07.952Z,70.83
2018-12-29T02:51:58.597Z,71.45
2018-12-29T02:54:48.675Z,71.65
2018-12-29T02:57:38.564Z,71.40
2018-12-29T03:00:28.856Z,71.65
2018-12-29T03:03:19.501Z,71.48
2018-12-29T03:06:09.355Z,71.24
2018-12-29T03:08:59.560Z,70.95
2018-12-29T03:11:50.064Z,70.95
2018-12-29T03:14:40.758Z,70.66
2018-12-29T03:17:30.804Z,71.06
2018-12-29T03:20:20.714Z,71.06
2018-12-29T03:23:11.367Z,71.81
2018-12-29T03:26:01.453Z,72.00
2018-12-29T03:28:51.172Z,71.94
2018-12-29T03:31:41.085Z,71.86
2018-12-29T03:34:31.085Z,71.66
2018-12-29T03:37:21.304Z,71.74
2018-12-29T03:40:11.630Z,71.76
2018-12-29T03:43:01.676Z,71.74
2018-12-29T03:45:52.841Z,71.54
2018-12-29T03:48:42.934Z,71.46
2018-12-29T03:51:33.146Z,71.46
2018-12-29T03:54:23.027Z,71.35
2018-12-29T03:57:13.048Z,71.08
2018-12-29T04:00:03.136Z,70.94
2018-12-29T04:02:53.350Z,71.57
2018-12-29T04:05:43.218Z,71.09
2018-12-29T04:08:33.312Z,71.23
2018-12-29T04:11:23.433Z,71.28
2018-12-29T04:14:13.455Z,71.37
2018-12-29T04:17:03.700Z,71.46
2018-12-29T04:19:53.668Z,71.45
2018-12-29T04:22:43.366Z,71.46
2018-12-29T04:25:33.571Z,71.42
2018-12-29T04:28:23.496Z,71.54
2018-12-29T04:31:13.333Z,71.54
2018-12-29T04:34:03.279Z,71.44
2018-12-29T04:36:53.479Z,71.12
2018-12-29T04:39:43.546Z,71.12
2018-12-29T04:42:33.621Z,70.50
2018-12-29T04:45:23.083Z,70.16
2018-12-29T04:48:13.288Z,70.32
2018-12-29T04:51:03.776Z,70.87
2018-12-29T04:53:53.837Z,70.75
2018-12-29T04:56:43.896Z,71.24
2018-12-29T04:59:34.689Z,71.24
2018-12-29T05:02:24.849Z,70.82
2018-12-29T05:05:15.289Z,70.82
2018-12-29T05:08:05.072Z,70.96
2018-12-29T05:10:55.519Z,71.17
2018-12-29T05:13:45.443Z,71.17
2018-12-29T05:16:35.619Z,70.98
2018-12-29T05:19:25.945Z,70.92
2018-12-29T05:22:16.077Z,71.09
2018-12-29T05:25:06.535Z,70.86
2018-12-29T05:27:56.351Z,71.04
2018-12-29T05:30:46.410Z,71.30
2018-12-29T05:33:36.181Z,71.41
2018-12-29T05:36:25.813Z,71.86
2018-12-29T05:39:15.865Z,72.00
2018-12-29T05:42:05.478Z,71.90
2018-12-29T05:44:55.312Z,72.03
2018-12-29T05:47:44.961Z,71.32
2018-12-29T05:50:34.900Z,71.44
2018-12-29T05:53:25.300Z,71.44
2018-12-29T05:56:14.910Z,71.09
2018-12-29T05:59:04.823Z,70.99
2018-12-29T06:01:54.538Z,71.19
2018-12-29T06:04:44.864Z,71.24
2018-12-29T06:07:34.984Z,71.01
2018-12-29T06:10:25.001Z,71.01
2018-12-29T06:13:15.355Z,70.99
2018-12-29T06:16:06.059Z,71.35
2018-12-29T06:18:56.400Z,71.24
2018-12-29T06:21:46.300Z,71.24
2018-12-29T06:24:36.499Z,70.81
2018-12-29T06:27:26.697Z,70.73
2018-12-29T06:30:16.607Z,70.37
2018-12-29T06:33:06.063Z,69.98
2018-12-29T06:35:56.176Z,70.10
2018-12-29T06:38:46.471Z,70.10
2018-12-29T06:41:36.334Z,69.68
2018-12-29T06:44:26.155Z,69.78
2018-12-29T06:47:16.185Z,70.06
2018-12-29T06:50:06.475Z,70.08
2018-12-29T06:52:56.566Z,70.42
2018-12-29T06:55:46.303Z,70.79
2018-12-29T06:58:36.534Z,70.20
2018-12-29T07:01:26.359Z,70.20
2018-12-29T07:04:16.127Z,70.20
2018-12-29T07:07:06.734Z,70.34
2018-12-29T07:09:56.918Z,70.34
2018-12-29T07:12:46.695Z,70.57
2018-12-29T07:15:36.438Z,70.84
2018-12-29T07:18:25.942Z,70.78
2018-12-29T07:21:16.209Z,70.25
2018-12-29T07:24:06.425Z,70.10
2018-12-29T07:26:56.390Z,69.93
2018-12-29T07:29:46.358Z,69.95
2018-12-29T07:32:36.126Z,69.89
2018-12-29T07:35:26.066Z,69.89
2018-12-29T07:38:15.854Z,69.97
2018-12-29T07:41:06.178Z,70.20
2018-12-29T07:43:56.568Z,70.40
2018-12-29T07:46:49.694Z,70.37
2018-12-29T07:49:38.194Z,70.17
2018-12-29T07:52:28.314Z,70.21
2018-12-29T07:55:18.458Z,69.98
2018-12-29T07:58:08.732Z,69.94
2018-12-29T08:00:58.872Z,69.94
2018-12-29T08:03:48.766Z,70.27
2018-12-29T08:06:38.936Z,70.37
2018-12-29T08:09:28.918Z,70.26
2018-12-29T08:12:18.813Z,70.20
2018-12-29T08:15:08.916Z,70.25
2018-12-29T08:17:59.797Z,70.34
2018-12-29T08:20:50.550Z,70.38
2018-12-29T08:23:41.075Z,70.22
2018-12-29T08:26:31.770Z,70.40
2018-12-29T08:29:22.040Z,70.35
2018-12-29T08:32:12.029Z,70.26
2018-12-29T08:35:02.174Z,70.21
2018-12-29T08:37:52.585Z,69.94
2018-12-29T08:40:42.646Z,69.49
2018-12-29T08:43:32.626Z,69.06
2018-12-29T08:46:23.046Z,68.82
2018-12-29T08:49:13.381Z,68.51
2018-12-29T08:52:03.748Z,68.40
2018-12-29T08:54:53.940Z,68.19
2018-12-29T08:57:43.584Z,68.21
2018-12-29T09:00:33.867Z,68.24
2018-12-29T09:03:23.613Z,68.40
2018-12-29T09:06:13.551Z,68.41
2018-12-29T09:09:04.482Z,68.13
2018-12-29T09:11:55.257Z,67.84
2018-12-29T09:14:45.452Z,67.38
2018-12-29T09:17:35.281Z,67.37
2018-12-29T09:20:24.788Z,67.46
2018-12-29T09:23:14.976Z,67.03
2018-12-29T09:26:04.850Z,66.42
2018-12-29T09:28:55.194Z,66.41
2018-12-29T09:31:45.539Z,66.65
2018-12-29T09:34:36.172Z,66.09
2018-12-29T09:37:26.287Z,66.40
2018-12-29T09:40:16.587Z,66.54
2018-12-29T09:43:07.090Z,66.54
2018-12-29T09:45:57.448Z,66.21
2018-12-29T09:48:47.266Z,66.27
2018-12-29T09:51:37.487Z,66.46
2018-12-29T09:54:27.320Z,66.76
2018-12-29T09:57:17.501Z,66.45
2018-12-29T10:00:08.210Z,66.25
2018-12-29T10:02:58.375Z,66.34
2018-12-29T10:05:48.295Z,66.33
2018-12-29T10:08:38.645Z,66.24
2018-12-29T10:11:29.152Z,66.45
2018-12-29T10:14:19.590Z,66.08
2018-12-29T10:17:09.978Z,66.34
2018-12-29T10:20:00.532Z,66.23
2018-12-29T10:22:51.058Z,66.07
2018-12-29T10:25:41.229Z,66.02
2018-12-29T10:28:31.628Z,65.98
2018-12-29T10:31:22.161Z,65.62
2018-12-29T10:34:12.928Z,65.21
2018-12-29T10:37:03.554Z,65.18
2018-12-29T10:39:53.981Z,65.31
2018-12-29T10:42:44.124Z,65.35
2018-12-29T10:45:34.730Z,65.36
2018-12-29T10:48:24.535Z,65.43
2018-12-29T10:51:14.903Z,65.42
2018-12-29T10:54:05.103Z,64.88
2018-12-29T10:56:55.192Z,64.68
2018-12-29T10:59:45.380Z,64.90
2018-12-29T11:02:35.223Z,64.99
2018-12-29T11:05:25.233Z,64.65
2018-12-29T11:08:15.722Z,64.21
2018-12-29T11:11:06.053Z,64.12
2018-12-29T11:13:56.374Z,63.89
2018-12-29T11:16:48.534Z,63.59
2018-12-29T11:19:38.492Z,63.38
2018-12-29T11:22:28.961Z,63.18
2018-12-29T11:25:19.470Z,63.30
2018-12-29T11:28:10.163Z,63.28
2018-12-29T11:31:01.753Z,63.21
2018-12-29T11:33:52.330Z,63.29
2018-12-29T11:36:42.356Z,63.55
2018-12-29T11:39:32.724Z,63.58
2018-12-29T11:42:23.030Z,63.65
2018-12-29T11:45:13.399Z,63.73
2018-12-29T11:48:03.845Z,63.43
2018-12-29T11:50:54.187Z,63.63
2018-12-29T11:53:46.144Z,63.91
2018-12-29T11:56:36.626Z,63.84
2018-12-29T11:59:26.632Z,63.88
2018-12-29T12:02:24.309Z,64.08
2018-12-29T12:05:08.649Z,63.88
2018-12-29T12:07:58.170Z,64.06
2018-12-29T12:10:48.166Z,64.46
2018-12-29T12:13:38.296Z,63.95
2018-12-29T12:16:28.357Z,64.02
2018-12-29T12:19:18.880Z,63.60
2018-12-29T12:22:09.399Z,63.75
2018-12-29T12:24:59.051Z,63.52
2018-12-29T12:27:49.623Z,62.90
2018-12-29T12:30:39.627Z,62.67
2018-12-29T12:33:30.394Z,62.56
2018-12-29T12:36:21.072Z,62.83
2018-12-29T12:39:10.934Z,62.68
2018-12-29T12:42:02.370Z,62.64
2018-12-29T12:44:52.889Z,62.70
2018-12-29T12:47:42.997Z,62.71
2018-12-29T12:50:34.370Z,61.93
2018-12-29T12:53:24.419Z,61.95
2018-12-29T12:56:14.426Z,61.74
2018-12-29T12:59:04.592Z,61.89
2018-12-29T13:01:54.747Z,61.86
2018-12-29T13:04:44.969Z,62.13
2018-12-29T13:07:35.409Z,61.93
2018-12-29T13:10:25.929Z,61.84
2018-12-29T13:13:16.157Z,61.89
2018-12-29T13:16:05.763Z,61.86
2018-12-29T13:18:55.772Z,61.78
2018-12-29T13:21:48.953Z,61.71
2018-12-29T13:24:38.991Z,61.63
2018-12-29T13:27:29.139Z,61.87
2018-12-29T13:30:19.110Z,61.58
2018-12-29T13:33:09.826Z,61.56
2018-12-29T13:36:00.106Z,61.19
2018-12-29T13:38:50.712Z,61.49
2018-12-29T13:41:41.079Z,61.30
2018-12-29T13:44:31.203Z,61.61
2018-12-29T13:47:21.094Z,61.59
2018-12-29T13:50:11.425Z,61.44
2018-12-29T13:53:01.570Z,61.67
2018-12-29T13:55:51.707Z,61.68
2018-12-29T13:58:41.924Z,62.13
2018-12-29T14:01:32.171Z,61.85
2018-12-29T14:04:22.497Z,61.94
2018-12-29T14:07:12.518Z,61.73
2018-12-29T14:10:02.727Z,61.91
2018-12-29T14:12:52.632Z,61.61
2018-12-29T14:15:42.540Z,62.01
2018-12-29T14:18:32.784Z,62.34
2018-12-29T14:21:22.913Z,62.51
2018-12-29T14:24:12.680Z,62.16
2018-12-29T14:27:02.235Z,62.34
2018-12-29T14:29:52.463Z,62.66
2018-12-29T14:32:42.783Z,62.48
2018-12-29T14:35:32.921Z,62.84
2018-12-29T14:38:23.733Z,62.79
2018-12-29T14:41:13.990Z,62.42
2018-12-29T14:44:03.952Z,62.37
2018-12-29T14:46:53.889Z,62.47
2018-12-29T14:49:44.026Z,62.49
2018-12-29T14:52:33.924Z,62.65
2018-12-29T14:55:24.242Z,62.47
2018-12-29T14:58:14.384Z,62.62
2018-12-29T15:01:04.595Z,62.23
2018-12-29T15:03:55.247Z,62.38
2018-12-29T15:06:45.826Z,62.18
2018-12-29T15:09:35.598Z,62.27
2018-12-29T15:12:25.414Z,62.37
2018-12-29T15:15:15.717Z,62.30
2018-12-29T15:18:05.675Z,62.77
2018-12-29T15:20:56.207Z,63.14
2018-12-29T15:23:45.952Z,63.51
2018-12-29T15:26:36.921Z,63.76
2018-12-29T15:29:27.801Z,63.98
2018-12-29T15:32:18.627Z,63.88
2018-12-29T15:35:08.644Z,63.81
2018-12-29T15:37:59.101Z,63.99
2018-12-29T15:40:48.592Z,64.33
2018-12-29T15:43:38.504Z,64.27
2018-12-29T15:46:28.939Z,64.15
2018-12-29T15:49:18.832Z,64.50
2018-12-29T15:52:09.085Z,64.60
2018-12-29T15:54:59.172Z,64.39
2018-12-29T15:57:49.174Z,64.32
2018-12-29T16:00:38.946Z,64.47
2018-12-29T16:03:29.239Z,64.27
2018-12-29T16:06:20.047Z,64.08
2018-12-29T16:09:09.646Z,63.97
2018-12-29T16:12:00.091Z,64.15
2018-12-29T16:14:50.353Z,63.95
2018-12-29T16:17:40.451Z,63.91
2018-12-29T16:20:31.552Z,63.88
2018-12-29T16:23:22.374Z,63.92
2018-12-29T16:26:13.420Z,63.65
2018-12-29T16:29:04.076Z,63.61
2018-12-29T16:31:54.623Z,63.74
2018-12-29T16:34:44.609Z,63.89
2018-12-29T16:37:34.922Z,64.01
2018-12-29T16:40:25.068Z,64.47
2018-12-29T16:43:15.045Z,64.32
2018-12-29T16:46:04.938Z,64.41
2018-12-29T16:48:54.870Z,64.41
2018-12-29T16:51:45.024Z,64.22
2018-12-29T16:54:35.494Z,64.26
2018-12-29T16:57:25.584Z,64.26
2018-12-29T17:00:16.074Z,64.28
2018-12-29T17:03:06.401Z,64.14
2018-12-29T17:05:56.556Z,64.27
2018-12-29T17:08:46.383Z,64.45
2018-12-29T17:11:36.546Z,64.37
2018-12-29T17:14:26.556Z,64.36
2018-12-29T17:17:17.159Z,64.57
2018-12-29T17:20:07.274Z,64.63
2018-12-29T17:22:58.154Z,64.61
2018-12-29T17:25:48.481Z,64.71
2018-12-29T17:28:38.150Z,64.67
2018-12-29T17:31:28.027Z,64.78
2018-12-29T17:34:18.296Z,64.72
2018-12-29T17:37:08.692Z,64.76
2018-12-29T17:39:59.661Z,64.68
2018-12-29T17:42:51.193Z,64.90
2018-12-29T17:45:41.626Z,65.36
2018-12-29T17:48:31.793Z,65.25
2018-12-29T17:51:21.757Z,65.23
2018-12-29T17:54:12.454Z,65.33
2018-12-29T17:57:02.950Z,65.15
2018-12-29T17:59:53.155Z,64.96
2018-12-29T18:02:43.226Z,64.87
2018-12-29T18:05:33.832Z,64.77
2018-12-29T18:08:24.240Z,64.79
2018-12-29T18:11:14.350Z,65.08
2018-12-29T18:14:04.995Z,64.98
2018-12-29T18:16:56.108Z,65.21
2018-12-29T18:19:46.558Z,65.24
2018-12-29T18:22:36.333Z,65.33
2018-12-29T18:25:26.352Z,65.17
2018-12-29T18:28:16.438Z,65.02
2018-12-29T18:31:06.291Z,64.93
2018-12-29T18:33:56.801Z,64.85
2018-12-29T18:36:46.793Z,64.80
2018-12-29T18:39:37.054Z,64.85
2018-12-29T18:42:27.043Z,65.17
2018-12-29T18:45:17.293Z,65.24
2018-12-29T18:48:07.285Z,65.25
2018-12-29T18:50:57.688Z,65.38
2018-12-29T18:53:47.618Z,65.27
2018-12-29T18:56:45.307Z,65.18
2018-12-29T18:59:30.048Z,65.32
2018-12-29T19:02:20.527Z,65.30
2018-12-29T19:05:10.841Z,65.44
2018-12-29T19:08:00.795Z,65.43
2018-12-29T19:10:50.574Z,65.72
2018-12-29T19:13:41.302Z,65.92
2018-12-29T19:16:31.399Z,65.90
2018-12-29T19:19:21.829Z,65.74
2018-12-29T19:22:11.901Z,65.80
2018-12-29T19:25:02.089Z,66.00
2018-12-29T19:27:52.339Z,65.87
2018-12-29T19:30:42.958Z,65.95
2018-12-29T19:33:33.776Z,66.29
2018-12-29T19:36:24.723Z,66.11
2018-12-29T19:39:14.777Z,66.00
2018-12-29T19:42:05.132Z,66.05
2018-12-29T19:44:55.404Z,66.46
2018-12-29T19:47:45.825Z,66.63
2018-12-29T19:50:36.824Z,66.52
2018-12-29T19:53:26.781Z,66.32
2018-12-29T19:56:16.588Z,66.31
2018-12-29T19:59:06.562Z,66.37
2018-12-29T20:01:57.034Z,66.48
2018-12-29T20:04:47.113Z,66.74
2018-12-29T20:07:37.615Z,66.87
2018-12-29T20:10:28.013Z,67.12
2018-12-29T20:13:18.492Z,67.36
2018-12-29T20:16:08.373Z,67.82
2018-12-29T20:18:58.636Z,67.83
2018-12-29T20:21:48.254Z,67.95
2018-12-29T20:24:39.291Z,68.16
2018-12-29T20:27:29.049Z,67.86
2018-12-29T20:30:19.195Z,67.95
2018-12-29T20:33:09.343Z,68.15
2018-12-29T20:35:59.689Z,68.01
2018-12-29T20:38:50.083Z,68.20
2018-12-29T20:41:40.998Z,68.45
2018-12-29T20:44:31.153Z,68.84
2018-12-29T20:47:21.219Z,69.04
2018-12-29T20:50:11.558Z,69.26
2018-12-29T20:53:01.939Z,69.32
2018-12-29T20:55:51.899Z,69.18
2018-12-29T20:58:42.510Z,69.05
2018-12-29T21:01:33.342Z,68.77
2018-12-29T21:04:23.791Z,68.48
2018-12-29T21:07:13.956Z,68.77
2018-12-29T21:10:05.193Z,68.77
2018-12-29T21:12:55.821Z,69.00
2018-12-29T21:15:45.814Z,68.94
2018-12-29T21:18:35.953Z,68.77
2018-12-29T21:21:26.386Z,68.41
2018-12-29T21:24:16.311Z,68.36
2018-12-29T21:27:06.962Z,68.10
2018-12-29T21:29:56.895Z,68.10
2018-12-29T21:32:47.780Z,68.33
2018-12-29T21:35:39.497Z,68.28
2018-12-29T21:38:29.813Z,67.93
2018-12-29T21:41:19.879Z,67.87
2018-12-29T21:44:10.548Z,67.63
2018-12-29T21:47:01.108Z,67.33
2018-12-29T21:49:51.827Z,67.23
2018-12-29T21:52:42.207Z,67.28
2018-12-29T21:55:32.756Z,67.27
2018-12-29T21:58:23.023Z,67.06
2018-12-29T22:01:13.711Z,66.81
2018-12-29T22:04:03.540Z,66.70
2018-12-29T22:06:53.954Z,66.79
2018-12-29T22:09:44.214Z,66.79
2018-12-29T22:15:24.382Z,66.62
2018-12-29T22:18:15.024Z,66.73
2018-12-29T22:23:54.684Z,66.71
2018-12-29T22:26:44.508Z,66.35
2018-12-29T22:29:34.487Z,66.36
2018-12-29T22:32:24.699Z,66.37
2018-12-29T22:35:15.254Z,66.39
2018-12-29T22:38:05.713Z,66.52
2018-12-29T22:40:55.950Z,66.34
2018-12-29T22:43:45.767Z,66.50
2018-12-29T22:46:36.333Z,66.74
2018-12-29T22:49:26.478Z,66.67
2018-12-29T22:52:17.072Z,67.23
2018-12-29T22:55:07.572Z,66.92
2018-12-29T22:57:57.985Z,66.87
2018-12-29T23:00:50.229Z,66.62
2018-12-29T23:03:39.904Z,66.69
2018-12-29T23:06:29.909Z,67.13
2018-12-29T23:09:20.351Z,67.63
2018-12-29T23:12:10.501Z,67.78
2018-12-29T23:15:01.186Z,68.53
2018-12-29T23:17:51.524Z,69.04
2018-12-29T23:20:48.916Z,69.68
2018-12-29T23:23:33.493Z,70.11
2018-12-29T23:26:23.370Z,70.20
2018-12-29T23:29:13.556Z,71.00
2018-12-29T23:32:03.875Z,71.34
2018-12-29T23:34:52.725Z,71.52
2018-12-29T23:37:40.951Z,71.65
2018-12-29T23:40:30.775Z,71.82
2018-12-29T23:43:20.750Z,71.74
2018-12-29T23:46:10.654Z,71.61
2018-12-29T23:49:00.787Z,71.49
2018-12-29T23:51:51.043Z,71.37
2018-12-29T23:54:41.462Z,71.60
2018-12-29T23:57:31.135Z,71.64
